createdAt,value
2023-04-13T00:00:41.360Z,12.80
2023-04-13T00:03:27.551Z,12.70
2023-04-13T00:06:13.188Z,12.70
2023-04-13T00:08:58.885Z,12.70
2023-04-13T00:11:44.395Z,12.70
2023-04-13T00:14:35.993Z,12.70
2023-04-13T00:17:21.770Z,12.80
2023-04-13T00:20:11.221Z,12.90
2023-04-13T00:22:57.112Z,12.80
2023-04-13T00:25:42.759Z,12.90
2023-04-13T00:28:29.819Z,12.90
2023-04-13T00:31:17.868Z,13.00
2023-04-13T00:34:04.005Z,13.00
2023-04-13T00:36:50.020Z,12.90
2023-04-13T00:39:36.898Z,12.80
2023-04-13T00:42:22.385Z,12.80
2023-04-13T00:45:08.241Z,12.70
2023-04-13T00:47:54.323Z,12.70
2023-04-13T00:50:40.347Z,12.60
2023-04-13T00:53:26.264Z,12.60
2023-04-13T00:56:13.655Z,12.60
2023-04-13T00:58:59.301Z,12.60
2023-04-13T01:01:50.910Z,12.60
2023-04-13T01:04:37.787Z,12.60
2023-04-13T01:07:30.000Z,12.60
2023-04-13T01:10:21.876Z,12.60
2023-04-13T01:13:14.490Z,12.60
2023-04-13T01:16:09.650Z,12.60
2023-04-13T01:18:56.930Z,12.70
2023-04-13T01:21:43.611Z,12.70
2023-04-13T01:24:36.800Z,12.60
2023-04-13T01:27:44.904Z,12.60
2023-04-13T01:30:32.432Z,12.60
2023-04-13T01:33:19.301Z,12.70
2023-04-13T01:36:05.183Z,12.70
2023-04-13T01:38:51.060Z,12.70
2023-04-13T01:41:37.933Z,12.70
2023-04-13T01:44:24.009Z,12.70
2023-04-13T01:47:15.852Z,12.70
2023-04-13T01:50:16.263Z,12.80
2023-04-13T01:53:16.332Z,12.70
2023-04-13T01:56:05.132Z,12.60
2023-04-13T01:58:53.539Z,12.50
2023-04-13T02:01:40.852Z,12.40
2023-04-13T02:04:26.579Z,12.50
2023-04-13T02:07:12.507Z,12.50
2023-04-13T02:10:06.097Z,12.50
2023-04-13T02:12:51.596Z,12.50
2023-04-13T02:15:38.038Z,12.50
2023-04-13T02:18:23.961Z,12.40
2023-04-13T02:21:09.848Z,12.40
2023-04-13T02:23:55.460Z,12.40
2023-04-13T02:26:42.300Z,12.40
2023-04-13T02:29:28.670Z,12.40
2023-04-13T02:32:14.550Z,12.30
2023-04-13T02:35:00.988Z,12.40
2023-04-13T02:37:48.925Z,12.40
2023-04-13T02:40:36.409Z,12.30
2023-04-13T02:43:22.565Z,12.30
2023-04-13T02:46:08.964Z,12.30
2023-04-13T02:48:58.427Z,12.20
2023-04-13T02:51:47.128Z,12.20
2023-04-13T02:54:33.231Z,12.20
2023-04-13T02:57:19.851Z,12.20
2023-04-13T03:00:11.977Z,12.20
2023-04-13T03:03:06.943Z,12.20
2023-04-13T03:05:58.805Z,12.20
2023-04-13T03:08:55.822Z,12.20
2023-04-13T03:11:42.562Z,12.20
2023-04-13T03:14:38.111Z,12.10
2023-04-13T03:17:28.425Z,12.00
2023-04-13T03:20:16.416Z,12.00
2023-04-13T03:23:11.898Z,12.00
2023-04-13T03:25:58.804Z,11.90
2023-04-13T03:28:44.305Z,11.90
2023-04-13T03:31:30.562Z,11.90
2023-04-13T03:34:16.687Z,11.90
2023-04-13T03:37:05.351Z,11.90
2023-04-13T03:39:51.111Z,11.90
2023-04-13T03:42:40.541Z,11.90
2023-04-13T03:45:26.487Z,11.80
2023-04-13T03:48:16.627Z,11.70
2023-04-13T03:51:02.527Z,11.80
2023-04-13T03:53:56.250Z,11.70
2023-04-13T03:56:45.295Z,11.80
2023-04-13T03:59:31.177Z,11.80
2023-04-13T04:02:17.465Z,11.80
2023-04-13T04:05:03.890Z,11.70
2023-04-13T04:07:49.818Z,11.70
2023-04-13T04:10:35.366Z,11.60
2023-04-13T04:13:21.985Z,11.50
2023-04-13T04:16:11.840Z,11.50
2023-04-13T04:19:03.417Z,11.40
2023-04-13T04:21:49.930Z,11.30
2023-04-13T04:24:38.212Z,11.20
2023-04-13T04:27:26.386Z,11.40
2023-04-13T04:30:14.998Z,11.30
2023-04-13T04:33:01.961Z,11.30
2023-04-13T04:35:54.175Z,11.40
2023-04-13T04:38:46.323Z,11.40
2023-04-13T04:41:31.853Z,11.40
2023-04-13T04:44:25.307Z,11.50
2023-04-13T04:47:13.362Z,11.50
2023-04-13T04:50:17.874Z,11.50
2023-04-13T04:53:07.055Z,11.30
2023-04-13T04:55:54.117Z,11.20
2023-04-13T04:58:56.079Z,11.10
2023-04-13T05:01:50.858Z,11.00
2023-04-13T05:04:38.624Z,11.00
2023-04-13T05:07:25.258Z,10.90
2023-04-13T05:10:11.158Z,11.00
2023-04-13T05:13:02.990Z,11.10
2023-04-13T05:15:49.661Z,11.20
2023-04-13T05:18:47.181Z,11.20
2023-04-13T05:22:02.161Z,11.20
2023-04-13T05:24:53.350Z,11.30
2023-04-13T05:27:40.241Z,11.30
2023-04-13T05:30:26.058Z,11.30
2023-04-13T05:33:12.148Z,11.20
2023-04-13T05:35:58.801Z,11.20
2023-04-13T05:38:46.143Z,11.10
2023-04-13T05:41:33.989Z,11.10
2023-04-13T05:44:19.657Z,11.00
2023-04-13T05:47:09.332Z,11.10
2023-04-13T05:49:55.124Z,11.00
2023-04-13T05:52:42.005Z,11.10
2023-04-13T05:55:27.737Z,11.10
2023-04-13T05:58:20.273Z,11.20
2023-04-13T06:01:12.219Z,11.20
2023-04-13T06:03:59.332Z,11.20
2023-04-13T06:06:46.519Z,11.30
2023-04-13T06:09:32.248Z,11.40
2023-04-13T06:12:18.479Z,11.40
2023-04-13T06:15:06.212Z,11.40
2023-04-13T06:17:55.291Z,11.30
2023-04-13T06:20:42.526Z,11.30
2023-04-13T06:23:28.371Z,11.20
2023-04-13T06:26:18.023Z,11.30
2023-04-13T06:29:08.856Z,11.30
2023-04-13T06:32:02.737Z,11.20
2023-04-13T06:34:48.744Z,11.20
2023-04-13T06:37:35.823Z,11.10
2023-04-13T06:40:23.460Z,11.10
2023-04-13T06:43:29.228Z,11.20
2023-04-13T06:46:36.047Z,11.10
2023-04-13T06:49:32.118Z,11.10
2023-04-13T06:52:18.350Z,11.10
2023-04-13T06:55:05.094Z,11.30
2023-04-13T07:07:24.239Z,11.50
2023-04-13T07:10:10.777Z,11.50
2023-04-13T07:17:34.215Z,11.50
2023-04-13T07:20:20.166Z,11.50
2023-04-13T07:26:53.523Z,11.70
2023-04-13T07:29:39.418Z,11.90
2023-04-13T07:32:31.513Z,12.00
2023-04-13T07:55:29.056Z,12.50
2023-04-13T07:58:15.414Z,12.50
2023-04-13T08:01:02.084Z,12.30
2023-04-13T08:13:44.332Z,12.00
2023-04-13T08:16:34.397Z,12.50
2023-04-13T08:38:46.972Z,12.60
2023-04-13T08:41:36.346Z,12.60
2023-04-13T08:49:13.597Z,12.80
2023-04-13T08:52:21.612Z,12.70
2023-04-13T08:55:10.504Z,12.80
2023-04-13T09:33:08.748Z,13.20
2023-04-13T09:35:54.684Z,13.40
2023-04-13T09:48:58.145Z,14.30
2023-04-13T09:51:44.060Z,15.00
2023-04-13T09:54:29.591Z,15.60
2023-04-13T10:02:05.751Z,16.40
2023-04-13T10:04:51.841Z,16.60
2023-04-13T10:07:38.206Z,16.40
2023-04-13T10:10:26.478Z,16.50
2023-04-13T10:13:23.813Z,16.70
2023-04-13T10:16:23.356Z,16.90
2023-04-13T10:19:21.691Z,17.20
2023-04-13T10:22:09.250Z,17.20
2023-04-13T10:24:55.323Z,17.10
2023-04-13T10:27:42.131Z,16.90
2023-04-13T10:30:28.323Z,16.90
2023-04-13T10:33:14.294Z,16.70
2023-04-13T10:36:01.211Z,16.50
2023-04-13T10:38:47.029Z,16.50
2023-04-13T10:41:33.217Z,16.50
2023-04-13T10:44:18.782Z,16.50
2023-04-13T10:47:06.233Z,16.50
2023-04-13T10:49:52.354Z,16.60
2023-04-13T10:52:38.218Z,16.70
2023-04-13T10:55:28.635Z,16.50
2023-04-13T10:58:15.121Z,16.70
2023-04-13T11:15:34.178Z,16.50
2023-04-13T11:18:26.632Z,16.60
2023-04-13T11:21:16.411Z,16.40
2023-04-13T11:24:02.023Z,16.50
2023-04-13T11:26:47.680Z,16.30
2023-04-13T11:29:33.984Z,16.30
2023-04-13T11:32:20.463Z,16.10
2023-04-13T11:35:09.977Z,15.90
2023-04-13T11:37:56.166Z,15.90
2023-04-13T11:40:45.375Z,16.00
2023-04-13T11:43:31.202Z,16.00
2023-04-13T11:46:23.171Z,16.10
2023-04-13T11:49:09.098Z,16.20
2023-04-13T11:51:55.173Z,16.40
2023-04-13T11:54:42.896Z,16.70
2023-04-13T11:57:29.198Z,16.80
2023-04-13T12:00:18.244Z,17.00
2023-04-13T12:03:11.200Z,17.00
2023-04-13T12:06:01.840Z,16.80
2023-04-13T12:08:57.561Z,16.80
2023-04-13T12:11:50.206Z,16.80
2023-04-13T12:14:54.642Z,16.80
2023-04-13T12:17:49.565Z,16.80
2023-04-13T12:20:40.370Z,17.00
2023-04-13T12:23:28.180Z,17.00
2023-04-13T12:26:57.846Z,16.90
2023-04-13T12:29:22.037Z,16.60
2023-04-13T12:32:14.275Z,16.40
2023-04-13T12:35:00.658Z,16.60
2023-04-13T12:37:46.943Z,16.70
2023-04-13T12:40:32.698Z,16.90
2023-04-13T12:43:18.393Z,17.00
2023-04-13T12:46:04.309Z,17.10
2023-04-13T12:48:50.420Z,17.00
2023-04-13T12:51:36.018Z,17.00
2023-04-13T12:54:23.163Z,16.90
2023-04-13T12:57:11.404Z,16.60
2023-04-13T12:59:58.640Z,16.40
2023-04-13T13:02:50.441Z,16.20
2023-04-13T13:05:39.919Z,16.00
2023-04-13T13:08:26.286Z,15.90
2023-04-13T13:11:12.224Z,15.60
2023-04-13T13:13:57.932Z,15.30
2023-04-13T13:16:43.586Z,15.10
2023-04-13T13:19:29.380Z,14.80
2023-04-13T13:22:15.016Z,14.70
2023-04-13T13:25:00.573Z,14.50
2023-04-13T13:30:38.508Z,14.50
2023-04-13T13:33:24.023Z,14.40
2023-04-13T13:36:09.461Z,14.00
2023-04-13T13:38:55.397Z,14.00
2023-04-13T13:41:41.124Z,13.80
2023-04-13T13:44:26.652Z,13.60
2023-04-13T13:47:12.709Z,13.40
2023-04-13T13:50:04.410Z,13.10
2023-04-13T13:53:03.250Z,12.90
2023-04-13T13:55:56.342Z,12.70
2023-04-13T13:58:41.971Z,12.30
2023-04-13T14:01:27.672Z,12.00
2023-04-13T14:04:13.296Z,12.00
2023-04-13T14:06:59.284Z,11.90
2023-04-13T14:09:45.151Z,11.90
2023-04-13T14:12:31.215Z,11.80
2023-04-13T14:15:17.140Z,11.80
2023-04-13T14:18:10.850Z,11.70
2023-04-13T14:20:59.712Z,11.70
2023-04-13T14:23:45.883Z,11.80
2023-04-13T14:26:31.572Z,11.80
2023-04-13T14:29:17.400Z,11.80
2023-04-13T14:32:02.955Z,12.00
2023-04-13T14:34:48.669Z,12.10
2023-04-13T14:37:34.189Z,12.20
2023-04-13T14:40:22.593Z,12.20
2023-04-13T14:43:08.489Z,12.20
2023-04-13T14:45:55.167Z,12.20
2023-04-13T14:48:41.415Z,12.20
2023-04-13T14:51:29.089Z,12.20
2023-04-13T14:54:14.725Z,12.20
2023-04-13T14:57:01.664Z,12.10
2023-04-13T14:59:47.452Z,12.10
2023-04-13T15:02:33.342Z,11.90
2023-04-13T15:05:19.154Z,11.80
2023-04-13T15:08:06.336Z,11.80
2023-04-13T15:10:53.721Z,11.70
2023-04-13T15:13:40.616Z,11.60
2023-04-13T15:16:26.515Z,11.50
2023-04-13T15:19:12.482Z,11.40
2023-04-13T15:21:58.652Z,11.20
2023-04-13T15:24:44.644Z,11.10
2023-04-13T15:27:30.717Z,11.10
2023-04-13T15:30:16.852Z,11.20
2023-04-13T15:33:04.640Z,11.30
2023-04-13T15:35:52.477Z,11.40
2023-04-13T15:38:38.361Z,11.50
2023-04-13T15:41:26.255Z,11.40
2023-04-13T15:44:12.973Z,11.20
2023-04-13T15:47:00.544Z,11.20
2023-04-13T15:49:48.349Z,10.60
2023-04-13T15:52:35.042Z,11.10
2023-04-13T15:55:21.235Z,11.10
2023-04-13T15:58:07.574Z,11.20
2023-04-13T16:01:03.723Z,11.20
2023-04-13T16:03:49.383Z,11.20
2023-04-13T16:06:35.962Z,11.10
2023-04-13T16:09:21.683Z,11.10
2023-04-13T16:12:11.101Z,11.00
2023-04-13T16:14:59.400Z,11.10
2023-04-13T16:17:45.533Z,11.00
2023-04-13T16:20:31.035Z,11.00
2023-04-13T16:23:17.038Z,11.00
2023-04-13T16:26:02.428Z,10.90
2023-04-13T16:28:48.026Z,11.00
2023-04-13T16:31:33.402Z,11.00
2023-04-13T16:34:26.039Z,11.00
2023-04-13T16:37:12.423Z,11.00
2023-04-13T16:39:58.527Z,11.10
2023-04-13T16:42:44.482Z,11.10
2023-04-13T16:45:29.859Z,11.10
2023-04-13T16:48:16.548Z,11.10
2023-04-13T16:51:02.355Z,11.10
2023-04-13T16:53:48.342Z,11.10
2023-04-13T16:56:33.894Z,11.10
2023-04-13T16:59:20.646Z,11.10
2023-04-13T17:02:13.193Z,11.10
2023-04-13T17:05:10.063Z,11.00
2023-04-13T17:07:55.813Z,11.00
2023-04-13T17:10:42.688Z,11.00
2023-04-13T17:13:28.358Z,10.90
2023-04-13T17:16:14.180Z,10.90
2023-04-13T17:18:59.948Z,10.90
2023-04-13T17:21:45.824Z,10.80
2023-04-13T17:24:32.083Z,10.80
2023-04-13T17:27:17.549Z,10.80
2023-04-13T17:30:03.671Z,10.70
2023-04-13T17:32:49.381Z,10.70
2023-04-13T17:35:35.214Z,10.60
2023-04-13T17:38:20.896Z,10.60
2023-04-13T17:41:06.796Z,10.60
2023-04-13T17:43:52.236Z,10.60
2023-04-13T17:46:38.100Z,10.60
2023-04-13T17:49:26.152Z,10.50
2023-04-13T17:52:11.882Z,10.50
2023-04-13T17:54:57.343Z,10.50
2023-04-13T17:57:43.197Z,10.50
2023-04-13T18:00:29.102Z,10.50
2023-04-13T18:03:15.024Z,10.50
2023-04-13T18:06:01.034Z,10.40
2023-04-13T18:08:46.510Z,10.50
2023-04-13T18:11:32.548Z,10.40
2023-04-13T18:14:17.916Z,10.40
2023-04-13T18:17:03.735Z,10.40
2023-04-13T18:19:52.004Z,10.40
2023-04-13T18:22:37.624Z,10.40
2023-04-13T18:25:23.334Z,10.40
2023-04-13T18:28:09.160Z,10.40
2023-04-13T18:30:58.501Z,10.30
2023-04-13T18:33:44.687Z,10.30
2023-04-13T18:36:31.025Z,10.30
2023-04-13T18:39:17.137Z,10.30
2023-04-13T18:42:02.978Z,10.30
2023-04-13T18:44:58.117Z,10.30
2023-04-13T18:47:46.460Z,10.30
2023-04-13T18:50:32.349Z,10.30
2023-04-13T18:53:18.178Z,10.30
2023-04-13T18:56:03.682Z,10.30
2023-04-13T18:58:49.460Z,10.30
2023-04-13T19:01:35.370Z,10.20
2023-04-13T19:04:21.336Z,10.20
2023-04-13T19:07:09.196Z,10.10
2023-04-13T19:09:55.091Z,10.10
2023-04-13T19:12:41.060Z,10.10
2023-04-13T19:15:26.677Z,10.10
2023-04-13T19:18:12.612Z,10.10
2023-04-13T19:21:00.061Z,10.10
2023-04-13T19:23:46.306Z,10.10
2023-04-13T19:26:32.236Z,10.00
2023-04-13T19:29:18.053Z,10.00
2023-04-13T19:32:07.324Z,10.00
2023-04-13T19:34:52.794Z,10.00
2023-04-13T19:37:38.623Z,10.00
2023-04-13T19:40:26.191Z,10.00
2023-04-13T19:43:12.165Z,10.00
2023-04-13T19:45:57.626Z,9.90
2023-04-13T19:48:43.584Z,9.90
2023-04-13T19:51:31.080Z,10.00
2023-04-13T19:54:16.879Z,10.00
2023-04-13T19:57:02.588Z,9.80
2023-04-13T19:59:48.597Z,9.80
2023-04-13T20:02:34.417Z,9.90
2023-04-13T20:05:20.341Z,9.90
2023-04-13T20:08:06.201Z,9.90
2023-04-13T20:10:51.662Z,9.80
2023-04-13T20:13:38.104Z,9.80
2023-04-13T20:16:26.460Z,9.80
2023-04-13T20:19:12.217Z,9.80
2023-04-13T20:22:02.208Z,9.80
2023-04-13T20:24:48.277Z,9.80
2023-04-13T20:27:34.391Z,9.70
2023-04-13T20:30:20.356Z,9.80
2023-04-13T20:33:07.259Z,9.80
2023-04-13T20:35:53.685Z,9.60
2023-04-13T20:38:42.763Z,9.60
2023-04-13T20:41:32.487Z,9.70
2023-04-13T20:44:23.708Z,9.70
2023-04-13T20:47:13.343Z,9.80
2023-04-13T20:50:00.006Z,9.70
2023-04-13T20:52:46.429Z,9.70
2023-04-13T20:55:32.553Z,9.70
2023-04-13T20:58:17.649Z,9.70
2023-04-13T21:01:03.483Z,9.60
2023-04-13T21:03:49.320Z,9.60
2023-04-13T21:06:36.164Z,9.50
2023-04-13T21:09:21.761Z,9.50
2023-04-13T21:12:07.366Z,9.50
2023-04-13T21:14:53.016Z,9.50
2023-04-13T21:17:39.014Z,9.50
2023-04-13T21:20:25.497Z,9.60
2023-04-13T21:23:11.437Z,9.60
2023-04-13T21:25:56.973Z,9.60
2023-04-13T21:28:42.981Z,9.50
2023-04-13T21:31:28.775Z,9.60
2023-04-13T21:34:14.156Z,9.60
2023-04-13T21:37:01.642Z,9.60
2023-04-13T21:39:47.203Z,9.60
2023-04-13T21:42:32.783Z,9.60
2023-04-13T21:45:18.947Z,9.60
2023-04-13T21:48:04.559Z,9.50
2023-04-13T21:50:52.017Z,9.60
2023-04-13T21:53:38.434Z,9.60
2023-04-13T21:56:23.857Z,9.60
2023-04-13T21:59:09.702Z,9.60
2023-04-13T22:01:55.241Z,9.60
2023-04-13T22:04:41.250Z,9.60
2023-04-13T22:07:39.064Z,9.60
2023-04-13T22:10:27.743Z,9.60
2023-04-13T22:13:13.408Z,9.60
2023-04-13T22:15:59.339Z,9.60
2023-04-13T22:18:44.917Z,9.60
2023-04-13T22:21:31.578Z,9.60
2023-04-13T22:24:17.233Z,9.60
2023-04-13T22:27:03.514Z,9.60
2023-04-13T22:29:49.358Z,9.60
2023-04-13T22:32:35.221Z,9.60
2023-04-13T22:35:21.071Z,9.70
2023-04-13T22:38:06.813Z,9.70
2023-04-13T22:40:52.232Z,9.60
2023-04-13T22:43:38.066Z,9.60
2023-04-13T22:46:24.026Z,9.60
2023-04-13T22:49:09.940Z,9.60
2023-04-13T22:51:56.378Z,9.50
2023-04-13T22:54:43.689Z,9.60
2023-04-13T22:57:29.559Z,9.50
2023-04-13T23:00:15.283Z,9.60
2023-04-13T23:03:00.829Z,9.60
2023-04-13T23:05:46.445Z,9.60
2023-04-13T23:08:32.196Z,9.50
2023-04-13T23:11:18.098Z,9.60
2023-04-13T23:14:03.882Z,9.60
2023-04-13T23:16:49.272Z,9.60
2023-04-13T23:19:35.076Z,9.60
2023-04-13T23:22:20.836Z,9.70
2023-04-13T23:25:07.076Z,9.70
2023-04-13T23:27:52.527Z,9.70
2023-04-13T23:30:38.190Z,9.70
2023-04-13T23:33:23.751Z,9.70
2023-04-13T23:36:09.589Z,9.70
2023-04-13T23:38:55.526Z,9.70
2023-04-13T23:41:40.876Z,9.70
2023-04-13T23:44:26.647Z,9.70
2023-04-13T23:47:12.406Z,9.70
2023-04-13T23:49:57.823Z,9.70
2023-04-13T23:52:44.019Z,9.70
2023-04-13T23:55:29.429Z,9.70
2023-04-13T23:58:15.066Z,9.70
